createdAt,value
2023-04-05T00:01:18.490Z,82.58
2023-04-05T00:04:24.827Z,94.49
2023-04-05T00:07:36.250Z,101.15
2023-04-05T00:10:42.989Z,94.00
2023-04-05T00:13:53.146Z,92.57
2023-04-05T00:16:59.214Z,85.21
2023-04-05T00:20:08.337Z,73.58
2023-04-05T00:23:14.986Z,69.11
2023-04-05T00:26:22.635Z,68.69
2023-04-05T00:29:36.185Z,66.78
2023-04-05T00:32:43.038Z,66.50
2023-04-05T00:35:49.830Z,66.82
2023-04-05T00:38:56.786Z,66.78
2023-04-05T00:42:06.471Z,69.64
2023-04-05T00:45:17.449Z,69.99
2023-04-05T00:48:33.399Z,72.52
2023-04-05T00:51:42.419Z,73.43
2023-04-05T00:54:49.636Z,72.75
2023-04-05T00:58:11.538Z,70.63
2023-04-05T01:01:38.354Z,74.72
2023-04-05T01:04:50.898Z,86.10
2023-04-05T01:08:11.145Z,88.20
2023-04-05T01:11:22.437Z,94.74
2023-04-05T01:14:28.789Z,86.81
2023-04-05T01:17:39.747Z,77.20
2023-04-05T01:20:58.554Z,71.45
2023-04-05T01:24:36.372Z,64.24
2023-04-05T01:28:16.319Z,65.34
2023-04-05T01:31:40.494Z,68.21
2023-04-05T01:34:57.362Z,79.87
2023-04-05T01:38:15.756Z,84.40
2023-04-05T01:41:22.094Z,89.75
2023-04-05T01:44:31.532Z,91.20
2023-04-05T01:47:40.075Z,81.07
2023-04-05T01:50:48.431Z,77.76
2023-04-05T01:53:54.543Z,83.12
2023-04-05T01:57:01.428Z,74.99
2023-04-05T02:00:13.620Z,62.29
2023-04-05T02:03:23.073Z,58.87
2023-04-05T02:06:29.334Z,57.33
2023-04-05T02:09:36.062Z,55.84
2023-04-05T02:12:42.053Z,54.64
2023-04-05T02:15:52.383Z,54.97
2023-04-05T02:19:02.689Z,53.55
2023-04-05T02:22:09.875Z,60.99
2023-04-05T02:25:16.253Z,62.82
2023-04-05T02:28:24.466Z,65.10
2023-04-05T02:31:33.158Z,68.54
2023-04-05T02:34:43.235Z,67.08
2023-04-05T02:37:49.211Z,65.09
2023-04-05T02:40:55.957Z,55.92
2023-04-05T02:44:02.066Z,48.37
2023-04-05T02:47:10.591Z,50.08
2023-04-05T02:50:20.943Z,59.86
2023-04-05T02:53:28.120Z,56.38
2023-04-05T02:56:39.739Z,52.92
2023-04-05T02:59:52.442Z,47.76
2023-04-05T03:03:00.290Z,43.83
2023-04-05T03:06:13.774Z,41.65
2023-04-05T03:09:27.901Z,38.01
2023-04-05T03:12:38.751Z,37.78
2023-04-05T03:15:47.488Z,38.66
2023-04-05T03:18:57.893Z,53.08
2023-04-05T03:22:06.528Z,50.42
2023-04-05T03:25:17.696Z,43.82
2023-04-05T03:28:27.195Z,38.82
2023-04-05T03:31:39.293Z,37.21
2023-04-05T03:34:48.206Z,37.25
2023-04-05T03:38:00.271Z,37.47
2023-04-05T03:41:07.177Z,34.88
2023-04-05T03:44:15.394Z,35.03
2023-04-05T03:47:23.462Z,35.06
2023-04-05T03:50:32.298Z,39.00
2023-04-05T03:53:41.102Z,36.53
2023-04-05T03:56:48.618Z,37.48
2023-04-05T04:00:00.321Z,39.81
2023-04-05T04:03:10.180Z,41.58
2023-04-05T04:06:20.480Z,43.92
2023-04-05T04:09:31.139Z,43.99
2023-04-05T04:12:44.592Z,42.90
2023-04-05T04:15:51.809Z,46.34
2023-04-05T04:19:14.005Z,42.23
2023-04-05T04:22:38.957Z,45.19
2023-04-05T04:26:01.983Z,43.93
2023-04-05T04:29:31.384Z,40.41
2023-04-05T04:32:56.566Z,38.76
2023-04-05T04:36:41.507Z,35.04
2023-04-05T04:40:26.009Z,32.11
2023-04-05T04:43:47.839Z,28.83
2023-04-05T04:47:04.451Z,28.99
2023-04-05T04:50:26.198Z,44.14
2023-04-05T04:53:32.181Z,55.41
2023-04-05T04:56:39.131Z,90.39
2023-04-05T04:59:47.670Z,170.72
2023-04-05T05:02:55.387Z,56.79
2023-04-05T05:06:02.938Z,33.28
2023-04-05T05:09:12.053Z,29.67
2023-04-05T05:12:30.372Z,28.09
2023-04-05T05:15:45.342Z,27.89
2023-04-05T05:18:51.508Z,26.38
2023-04-05T05:21:58.333Z,25.83
2023-04-05T05:25:04.111Z,26.67
2023-04-05T05:28:11.160Z,33.23
2023-04-05T05:31:20.312Z,44.01
2023-04-05T05:34:28.420Z,46.39
2023-04-05T05:37:38.130Z,45.66
2023-04-05T05:40:44.986Z,39.04
2023-04-05T05:43:51.034Z,35.96
2023-04-05T05:47:00.794Z,36.24
2023-04-05T05:50:07.137Z,36.90
2023-04-05T05:53:13.837Z,41.69
2023-04-05T05:56:19.889Z,41.60
2023-04-05T05:59:26.700Z,44.94
2023-04-05T06:02:35.497Z,50.55
2023-04-05T06:05:44.081Z,49.20
2023-04-05T06:08:51.948Z,63.75
2023-04-05T06:11:59.342Z,42.08
2023-04-05T06:15:18.540Z,37.41
2023-04-05T06:18:33.584Z,40.76
2023-04-05T06:21:39.979Z,39.36
2023-04-05T06:24:46.712Z,40.04
2023-04-05T06:27:54.386Z,38.56
2023-04-05T06:31:02.658Z,40.28
2023-04-05T06:34:11.242Z,40.60
2023-04-05T06:37:18.146Z,41.58
2023-04-05T06:40:24.341Z,36.43
2023-04-05T06:43:31.179Z,34.25
2023-04-05T06:46:37.164Z,34.80
2023-04-05T06:49:46.831Z,36.02
2023-04-05T06:52:52.842Z,37.00
2023-04-05T06:56:02.050Z,36.46
2023-04-05T06:59:08.143Z,36.76
2023-04-05T07:02:16.808Z,36.41
2023-04-05T07:05:26.030Z,37.51
2023-04-05T07:08:35.885Z,39.28
2023-04-05T07:11:41.850Z,39.42
2023-04-05T07:14:48.543Z,42.18
2023-04-05T07:17:54.529Z,34.83
2023-04-05T07:21:04.229Z,31.01
2023-04-05T07:24:17.539Z,38.09
2023-04-05T07:27:24.666Z,33.55
2023-04-05T07:30:32.220Z,33.54
2023-04-05T07:33:39.035Z,34.86
2023-04-05T07:36:50.652Z,35.86
2023-04-05T07:39:58.699Z,30.55
2023-04-05T07:43:05.360Z,23.23
2023-04-05T07:46:12.132Z,25.79
2023-04-05T07:49:18.237Z,29.82
2023-04-05T07:52:27.656Z,30.98
2023-04-05T07:55:34.284Z,28.77
2023-04-05T07:58:42.549Z,21.97
2023-04-05T08:01:48.424Z,23.79
2023-04-05T08:04:55.152Z,25.91
2023-04-05T08:08:04.092Z,26.08
2023-04-05T08:11:10.984Z,26.87
2023-04-05T08:14:19.392Z,24.38
2023-04-05T08:17:27.430Z,21.17
2023-04-05T08:20:39.906Z,19.67
2023-04-05T08:23:57.342Z,19.40
2023-04-05T08:27:03.280Z,20.44
2023-04-05T08:30:12.152Z,18.58
2023-04-05T08:33:18.042Z,21.35
2023-04-05T08:36:26.043Z,15.68
2023-04-05T08:39:34.882Z,16.38
2023-04-05T08:42:55.433Z,12.98
2023-04-05T08:46:05.193Z,13.12
2023-04-05T08:49:12.555Z,13.37
2023-04-05T08:52:19.417Z,14.71
2023-04-05T08:55:29.697Z,12.07
2023-04-05T08:58:41.693Z,13.11
2023-04-05T09:01:51.803Z,10.80
2023-04-05T09:04:58.635Z,10.12
2023-04-05T09:08:06.453Z,9.45
2023-04-05T09:11:22.411Z,9.35
2023-04-05T09:14:33.398Z,8.70
2023-04-05T09:17:44.795Z,9.36
2023-04-05T09:20:51.629Z,10.14
2023-04-05T09:23:58.117Z,12.24
2023-04-05T09:27:12.850Z,14.15
2023-04-05T09:30:34.235Z,10.92
2023-04-05T09:33:50.069Z,9.87
2023-04-05T09:36:56.680Z,9.13
2023-04-05T09:40:16.349Z,9.15
2023-04-05T09:43:43.532Z,8.49
2023-04-05T09:46:50.303Z,7.80
2023-04-05T09:49:56.821Z,10.19
2023-04-05T09:53:16.448Z,12.47
2023-04-05T09:56:23.823Z,7.23
2023-04-05T09:59:33.785Z,10.66
2023-04-05T10:02:41.988Z,7.29
2023-04-05T10:05:48.944Z,7.46
2023-04-05T10:08:55.961Z,7.43
2023-04-05T10:12:08.081Z,8.56
2023-04-05T10:15:17.109Z,9.81
2023-04-05T10:18:40.051Z,9.59
2023-04-05T10:21:51.200Z,9.85
2023-04-05T10:25:08.287Z,9.09
2023-04-05T10:28:20.990Z,8.64
2023-04-05T10:31:49.184Z,7.63
2023-04-05T10:35:07.560Z,7.74
2023-04-05T10:38:27.695Z,9.07
2023-04-05T10:41:43.242Z,9.48
2023-04-05T10:45:00.652Z,8.06
2023-04-05T10:48:22.110Z,7.87
2023-04-05T10:51:30.057Z,8.96
2023-04-05T10:54:38.871Z,11.80
2023-04-05T10:57:47.739Z,13.26
2023-04-05T11:00:57.318Z,12.06
2023-04-05T11:04:17.803Z,8.68
2023-04-05T11:07:23.809Z,8.07
2023-04-05T11:10:32.661Z,8.78
2023-04-05T11:13:53.356Z,7.61
2023-04-05T11:17:00.360Z,7.07
2023-04-05T11:20:15.925Z,7.96
2023-04-05T11:23:26.578Z,7.74
2023-04-05T11:26:37.266Z,9.12
2023-04-05T11:29:54.904Z,12.58
2023-04-05T11:33:01.066Z,9.83
2023-04-05T11:36:11.566Z,9.01
2023-04-05T11:39:31.616Z,7.01
2023-04-05T11:42:41.583Z,8.22
2023-04-05T11:45:49.069Z,8.72
2023-04-05T11:48:55.854Z,14.67
2023-04-05T11:52:15.932Z,8.85
2023-04-05T11:55:30.279Z,6.97
2023-04-05T11:58:37.815Z,6.75
2023-04-05T12:01:48.447Z,6.54
2023-04-05T12:04:59.353Z,6.75
2023-04-05T12:08:08.973Z,6.57
2023-04-05T12:11:15.767Z,7.06
2023-04-05T12:14:27.283Z,6.61
2023-04-05T12:17:51.012Z,6.54
2023-04-05T12:20:58.555Z,6.46
2023-04-05T12:24:07.933Z,6.99
2023-04-05T12:27:15.163Z,12.07
2023-04-05T12:30:24.210Z,10.65
2023-04-05T12:33:33.359Z,9.30
2023-04-05T12:36:40.095Z,8.50
2023-04-05T12:39:49.638Z,6.84
2023-04-05T12:42:56.536Z,6.36
2023-04-05T12:46:05.272Z,6.50
2023-04-05T12:49:21.741Z,7.52
2023-04-05T12:52:35.362Z,10.14
2023-04-05T12:55:52.282Z,7.91
2023-04-05T12:59:01.924Z,6.25
2023-04-05T13:02:09.061Z,7.04
2023-04-05T13:05:16.536Z,18.01
2023-04-05T13:08:23.332Z,18.02
2023-04-05T13:11:32.864Z,11.70
2023-04-05T13:14:39.232Z,9.51
2023-04-05T13:17:50.386Z,12.88
2023-04-05T13:20:56.475Z,13.23
2023-04-05T13:24:03.405Z,7.12
2023-04-05T13:27:11.942Z,14.47
2023-04-05T13:30:19.934Z,19.89
2023-04-05T13:33:26.368Z,6.38
2023-04-05T13:36:33.076Z,6.48
2023-04-05T13:39:39.173Z,9.54
2023-04-05T13:42:49.335Z,6.72
2023-04-05T13:45:57.798Z,6.84
2023-04-05T13:49:04.491Z,7.14
2023-04-05T13:52:10.588Z,9.68
2023-04-05T13:55:18.272Z,15.63
2023-04-05T13:58:26.992Z,13.25
2023-04-05T14:01:37.809Z,11.07
2023-04-05T14:04:44.531Z,6.88
2023-04-05T14:07:51.410Z,6.57
2023-04-05T14:11:00.824Z,9.14
2023-04-05T14:14:12.961Z,16.09
2023-04-05T14:17:33.635Z,8.74
2023-04-05T14:20:40.688Z,8.88
2023-04-05T14:23:46.817Z,9.82
2023-04-05T14:26:53.527Z,7.70
2023-04-05T14:30:08.747Z,7.75
2023-04-05T14:33:17.269Z,11.31
2023-04-05T14:36:23.358Z,12.09
2023-04-05T14:39:30.625Z,7.60
2023-04-05T14:42:48.477Z,7.92
2023-04-05T14:45:59.027Z,7.42
2023-04-05T14:49:18.214Z,7.47
2023-04-05T14:52:25.192Z,7.92
2023-04-05T14:55:31.344Z,14.07
2023-04-05T14:58:38.156Z,13.99
2023-04-05T15:01:53.748Z,10.82
2023-04-05T15:05:00.954Z,11.39
2023-04-05T15:08:07.904Z,14.82
2023-04-05T15:11:15.147Z,10.25
2023-04-05T15:14:31.035Z,10.68
2023-04-05T15:17:41.557Z,8.00
2023-04-05T15:21:02.983Z,13.61
2023-04-05T15:24:21.226Z,12.09
2023-04-05T15:27:27.349Z,16.26
2023-04-05T15:30:35.382Z,9.00
2023-04-05T15:33:44.039Z,27.85
2023-04-05T15:36:52.643Z,72.14
2023-04-05T15:39:59.643Z,26.75
2023-04-05T15:43:14.074Z,8.62
2023-04-05T15:46:20.091Z,9.85
2023-04-05T15:49:31.723Z,14.04
2023-04-05T15:52:41.160Z,19.01
2023-04-05T15:55:47.940Z,11.10
2023-04-05T15:58:53.993Z,13.55
2023-04-05T16:02:00.827Z,8.55
2023-04-05T16:05:10.135Z,8.22
2023-04-05T16:08:19.428Z,13.82
2023-04-05T16:11:25.691Z,13.24
2023-04-05T16:14:32.827Z,11.26
2023-04-05T16:17:38.832Z,9.68
2023-04-05T16:20:48.633Z,8.64
2023-04-05T16:24:01.393Z,7.88
2023-04-05T16:27:08.360Z,8.11
2023-04-05T16:30:15.270Z,10.18
2023-04-05T16:33:22.108Z,8.44
2023-04-05T16:36:35.618Z,8.74
2023-04-05T16:39:42.386Z,8.81
2023-04-05T16:42:51.197Z,10.01
2023-04-05T16:45:58.141Z,11.55
2023-04-05T16:49:23.996Z,13.41
2023-04-05T16:52:34.270Z,13.28
2023-04-05T16:55:46.739Z,14.18
2023-04-05T16:59:06.714Z,18.35
2023-04-05T17:02:24.507Z,19.50
2023-04-05T17:05:38.573Z,17.35
2023-04-05T17:08:49.465Z,12.78
2023-04-05T17:11:56.547Z,12.31
2023-04-05T17:15:03.361Z,11.70
2023-04-05T17:18:10.262Z,11.20
2023-04-05T17:21:23.338Z,11.05
2023-04-05T17:24:37.630Z,11.45
2023-04-05T17:27:43.593Z,10.71
2023-04-05T17:30:50.742Z,11.13
2023-04-05T17:33:57.391Z,11.86
2023-04-05T17:37:12.205Z,13.40
2023-04-05T17:40:21.732Z,15.66
2023-04-05T17:43:32.993Z,15.75
2023-04-05T17:46:46.282Z,16.95
2023-04-05T17:49:59.996Z,19.18
2023-04-05T17:53:06.500Z,20.72
2023-04-05T17:56:16.248Z,20.75
2023-04-05T17:59:22.206Z,21.58
2023-04-05T18:02:29.379Z,22.98
2023-04-05T18:05:36.574Z,23.55
2023-04-05T18:08:43.775Z,24.51
2023-04-05T18:11:53.579Z,26.58
2023-04-05T18:15:00.427Z,28.60
2023-04-05T18:18:26.345Z,25.12
2023-04-05T18:21:37.922Z,20.61
2023-04-05T18:24:46.731Z,17.34
2023-04-05T18:27:56.217Z,15.88
2023-04-05T18:31:02.353Z,15.71
2023-04-05T18:34:09.246Z,17.90
2023-04-05T18:37:17.624Z,19.85
2023-04-05T18:40:47.047Z,21.49
2023-04-05T18:43:57.630Z,22.53
2023-04-05T18:47:05.159Z,24.84
2023-04-05T18:50:29.507Z,28.38
2023-04-05T18:53:36.874Z,32.13
2023-04-05T18:56:43.012Z,39.21
2023-04-05T19:00:04.791Z,44.23
2023-04-05T19:03:28.600Z,51.49
2023-04-05T19:06:35.788Z,89.35
2023-04-05T19:09:41.933Z,108.53
2023-04-05T19:12:49.494Z,99.82
2023-04-05T19:16:00.702Z,88.92
2023-04-05T19:19:09.250Z,83.59
2023-04-05T19:22:16.148Z,81.64
2023-04-05T19:25:30.277Z,84.94
2023-04-05T19:28:36.436Z,92.35
2023-04-05T19:31:46.042Z,91.33
2023-04-05T19:34:53.021Z,105.15
2023-04-05T19:38:01.386Z,121.54
2023-04-05T19:41:07.502Z,115.89
2023-04-05T19:44:14.962Z,95.33
2023-04-05T19:47:38.793Z,88.85
2023-04-05T19:50:52.867Z,91.92
2023-04-05T19:54:03.194Z,88.89
2023-04-05T19:57:11.929Z,93.96
2023-04-05T20:00:39.401Z,102.82
2023-04-05T20:03:49.017Z,92.91
2023-04-05T20:06:59.383Z,85.32
2023-04-05T20:10:21.198Z,87.32
2023-04-05T20:13:35.099Z,92.67
2023-04-05T20:16:41.919Z,108.18
2023-04-05T20:20:08.623Z,94.42
2023-04-05T20:23:23.110Z,94.81
2023-04-05T20:26:34.745Z,98.66
2023-04-05T20:29:42.200Z,103.32
2023-04-05T20:32:48.318Z,115.67
2023-04-05T20:35:57.841Z,111.80
2023-04-05T20:39:06.920Z,99.00
2023-04-05T20:42:14.637Z,88.50
2023-04-05T20:45:24.367Z,89.64
2023-04-05T20:48:31.235Z,97.70
2023-04-05T20:51:41.971Z,99.11
2023-04-05T20:54:51.643Z,101.47
2023-04-05T20:57:57.580Z,103.90
2023-04-05T21:01:05.383Z,102.92
2023-04-05T21:04:12.053Z,105.02
2023-04-05T21:07:22.118Z,115.22
2023-04-05T21:10:28.114Z,111.10
2023-04-05T21:13:38.290Z,112.90
2023-04-05T21:16:44.169Z,108.90
2023-04-05T21:19:51.010Z,106.09
2023-04-05T21:23:03.602Z,108.46
2023-04-05T21:26:13.213Z,105.50
2023-04-05T21:29:19.264Z,105.30
2023-04-05T21:32:26.361Z,104.59
2023-04-05T21:35:35.142Z,110.20
2023-04-05T21:38:44.614Z,114.64
2023-04-05T21:41:50.613Z,112.33
2023-04-05T21:44:58.312Z,114.50
2023-04-05T21:48:04.333Z,119.73
2023-04-05T21:51:11.289Z,118.01
2023-04-05T21:54:19.833Z,114.29
2023-04-05T21:57:29.218Z,114.67
2023-04-05T22:00:35.320Z,121.39
2023-04-05T22:03:42.764Z,115.54
2023-04-05T22:06:49.036Z,147.49
2023-04-05T22:09:58.590Z,132.06
2023-04-05T22:13:04.768Z,130.30
2023-04-05T22:16:11.948Z,128.89
2023-04-05T22:19:18.201Z,123.52
2023-04-05T22:22:25.108Z,122.41
2023-04-05T22:25:33.843Z,129.54
2023-04-05T22:28:40.842Z,129.30
2023-04-05T22:31:47.146Z,122.37
2023-04-05T22:34:54.190Z,121.96
2023-04-05T22:38:00.262Z,118.94
2023-04-05T22:41:09.803Z,107.04
2023-04-05T22:44:19.925Z,104.09
2023-04-05T22:47:26.850Z,108.57
2023-04-05T22:50:32.820Z,111.58
2023-04-05T22:53:41.054Z,117.87
2023-04-05T22:56:49.773Z,123.37
2023-04-05T22:59:59.091Z,142.87
2023-04-05T23:03:05.346Z,122.64
2023-04-05T23:06:12.128Z,103.74
2023-04-05T23:09:21.109Z,116.16
2023-04-05T23:12:30.504Z,118.51
2023-04-05T23:15:36.886Z,103.62
2023-04-05T23:18:43.671Z,93.08
2023-04-05T23:21:49.630Z,88.80
2023-04-05T23:24:56.428Z,93.85
2023-04-05T23:28:04.989Z,113.05
2023-04-05T23:31:11.957Z,114.11
2023-04-05T23:34:18.281Z,96.92
2023-04-05T23:37:25.424Z,105.68
2023-04-05T23:40:31.397Z,105.90
2023-04-05T23:43:40.930Z,107.54
2023-04-05T23:46:47.100Z,106.21
2023-04-05T23:49:53.995Z,86.77
2023-04-05T23:53:01.181Z,96.63
2023-04-05T23:56:09.367Z,97.74
2023-04-05T23:59:18.847Z,103.11
